sensor_id;sensor_type;location;lat;lon;timestamp;temperature;humidity
837;DHT22;400;53.550;9.932;2022-11-15T00:00:45;8.70;99.90
837;DHT22;400;53.550;9.932;2022-11-15T00:03:13;8.80;99.90
837;DHT22;400;53.550;9.932;2022-11-15T00:05:40;8.80;99.90
837;DHT22;400;53.550;9.932;2022-11-15T00:08:07;8.70;99.90
837;DHT22;400;53.550;9.932;2022-11-15T00:10:35;8.70;99.90
837;DHT22;400;53.550;9.932;2022-11-15T00:13:05;8.70;99.90
837;DHT22;400;53.550;9.932;2022-11-15T00:15:34;8.60;99.90
837;DHT22;400;53.550;9.932;2022-11-15T00:18:01;8.60;99.90
837;DHT22;400;53.550;9.932;2022-11-15T00:20:29;8.70;99.90
837;DHT22;400;53.550;9.932;2022-11-15T00:22:55;8.70;99.90
837;DHT22;400;53.550;9.932;2022-11-15T00:25:23;8.80;99.90
837;DHT22;400;53.550;9.932;2022-11-15T00:27:56;8.80;99.90
837;DHT22;400;53.550;9.932;2022-11-15T00:30:26;8.90;99.90
837;DHT22;400;53.550;9.932;2022-11-15T00:32:53;8.90;99.90
837;DHT22;400;53.550;9.932;2022-11-15T00:35:20;9.00;99.90
837;DHT22;400;53.550;9.932;2022-11-15T00:37:48;9.00;99.90
837;DHT22;400;53.550;9.932;2022-11-15T00:40:15;9.00;99.90
837;DHT22;400;53.550;9.932;2022-11-15T00:42:42;9.00;99.90
837;DHT22;400;53.550;9.932;2022-11-15T00:45:11;9.00;99.90
837;DHT22;400;53.550;9.932;2022-11-15T00:47:38;9.10;99.90
837;DHT22;400;53.550;9.932;2022-11-15T00:50:06;9.10;99.90
837;DHT22;400;53.550;9.932;2022-11-15T00:52:33;9.00;99.90
837;DHT22;400;53.550;9.932;2022-11-15T00:54:59;9.10;99.90
837;DHT22;400;53.550;9.932;2022-11-15T00:57:26;9.00;99.90
837;DHT22;400;53.550;9.932;2022-11-15T00:59:53;9.00;99.90
837;DHT22;400;53.550;9.932;2022-11-15T01:02:22;9.00;99.90
837;DHT22;400;53.550;9.932;2022-11-15T01:04:49;9.00;99.90
837;DHT22;400;53.550;9.932;2022-11-15T01:07:15;9.00;99.90
837;DHT22;400;53.550;9.932;2022-11-15T01:09:42;9.00;99.90
837;DHT22;400;53.550;9.932;2022-11-15T01:12:09;9.00;99.90
837;DHT22;400;53.550;9.932;2022-11-15T01:14:36;9.00;99.90
837;DHT22;400;53.550;9.932;2022-11-15T01:17:03;9.00;99.90
837;DHT22;400;53.550;9.932;2022-11-15T01:19:31;9.00;99.90
837;DHT22;400;53.550;9.932;2022-11-15T01:21:58;9.00;99.90
837;DHT22;400;53.550;9.932;2022-11-15T01:24:24;9.00;99.90
837;DHT22;400;53.550;9.932;2022-11-15T01:26:51;9.00;99.90
837;DHT22;400;53.550;9.932;2022-11-15T01:29:18;8.90;99.90
837;DHT22;400;53.550;9.932;2022-11-15T01:31:45;8.90;99.90
837;DHT22;400;53.550;9.932;2022-11-15T01:34:12;8.90;99.90
837;DHT22;400;53.550;9.932;2022-11-15T01:36:41;8.80;99.90
837;DHT22;400;53.550;9.932;2022-11-15T01:39:08;8.80;99.90
837;DHT22;400;53.550;9.932;2022-11-15T01:41:36;8.80;99.90
837;DHT22;400;53.550;9.932;2022-11-15T01:44:36;8.80;99.90
837;DHT22;400;53.550;9.932;2022-11-15T01:47:08;8.80;99.90
837;DHT22;400;53.550;9.932;2022-11-15T01:49:38;8.90;99.90
837;DHT22;400;53.550;9.932;2022-11-15T01:52:09;8.80;99.90
837;DHT22;400;53.550;9.932;2022-11-15T01:54:38;8.80;99.90
837;DHT22;400;53.550;9.932;2022-11-15T01:57:09;8.70;99.90
837;DHT22;400;53.550;9.932;2022-11-15T01:59:37;8.70;99.90
837;DHT22;400;53.550;9.932;2022-11-15T02:02:06;8.70;99.90
837;DHT22;400;53.550;9.932;2022-11-15T02:04:37;8.80;99.90
837;DHT22;400;53.550;9.932;2022-11-15T02:07:09;8.80;99.90
837;DHT22;400;53.550;9.932;2022-11-15T02:09:37;8.70;99.90
837;DHT22;400;53.550;9.932;2022-11-15T02:12:04;8.80;99.90
837;DHT22;400;53.550;9.932;2022-11-15T02:14:32;8.80;99.90
837;DHT22;400;53.550;9.932;2022-11-15T02:17:08;8.70;99.90
837;DHT22;400;53.550;9.932;2022-11-15T02:20:08;8.70;99.90
837;DHT22;400;53.550;9.932;2022-11-15T02:22:51;8.70;99.90
837;DHT22;400;53.550;9.932;2022-11-15T02:25:37;8.60;99.90
837;DHT22;400;53.550;9.932;2022-11-15T02:28:34;8.50;99.90
837;DHT22;400;53.550;9.932;2022-11-15T02:31:10;8.40;99.90
837;DHT22;400;53.550;9.932;2022-11-15T02:33:44;8.50;99.90
837;DHT22;400;53.550;9.932;2022-11-15T02:36:18;8.50;99.90
837;DHT22;400;53.550;9.932;2022-11-15T02:38:58;8.50;99.90
837;DHT22;400;53.550;9.932;2022-11-15T02:41:30;8.50;99.90
837;DHT22;400;53.550;9.932;2022-11-15T02:44:12;8.50;99.90
837;DHT22;400;53.550;9.932;2022-11-15T02:46:42;8.50;99.90
837;DHT22;400;53.550;9.932;2022-11-15T02:49:32;8.50;99.90
837;DHT22;400;53.550;9.932;2022-11-15T02:51:59;8.50;99.90
837;DHT22;400;53.550;9.932;2022-11-15T02:54:30;8.40;99.90
837;DHT22;400;53.550;9.932;2022-11-15T02:57:05;8.30;99.90
837;DHT22;400;53.550;9.932;2022-11-15T03:02:42;8.30;99.90
837;DHT22;400;53.550;9.932;2022-11-15T03:05:19;8.30;99.90
837;DHT22;400;53.550;9.932;2022-11-15T03:08:02;8.20;99.90
837;DHT22;400;53.550;9.932;2022-11-15T03:10:36;8.30;99.90
837;DHT22;400;53.550;9.932;2022-11-15T03:13:12;8.30;99.90
837;DHT22;400;53.550;9.932;2022-11-15T03:15:48;8.30;99.90
837;DHT22;400;53.550;9.932;2022-11-15T03:18:21;8.30;99.90
837;DHT22;400;53.550;9.932;2022-11-15T03:20:50;8.30;99.90
837;DHT22;400;53.550;9.932;2022-11-15T03:23:20;8.30;99.90
837;DHT22;400;53.550;9.932;2022-11-15T03:25:49;8.30;99.90
837;DHT22;400;53.550;9.932;2022-11-15T03:28:20;8.30;99.90
837;DHT22;400;53.550;9.932;2022-11-15T03:30:50;8.30;99.90
837;DHT22;400;53.550;9.932;2022-11-15T03:33:21;8.40;99.90
837;DHT22;400;53.550;9.932;2022-11-15T03:35:48;8.40;99.90
837;DHT22;400;53.550;9.932;2022-11-15T03:38:20;8.40;99.90
837;DHT22;400;53.550;9.932;2022-11-15T03:40:53;8.40;99.90
837;DHT22;400;53.550;9.932;2022-11-15T03:43:28;8.30;99.90
837;DHT22;400;53.550;9.932;2022-11-15T03:46:00;8.40;99.90
837;DHT22;400;53.550;9.932;2022-11-15T03:48:33;8.40;99.90
837;DHT22;400;53.550;9.932;2022-11-15T03:51:01;8.40;99.90
837;DHT22;400;53.550;9.932;2022-11-15T03:53:30;8.40;99.90
837;DHT22;400;53.550;9.932;2022-11-15T03:55:57;8.50;99.90
837;DHT22;400;53.550;9.932;2022-11-15T03:58:24;8.50;99.90
837;DHT22;400;53.550;9.932;2022-11-15T04:00:53;8.50;99.90
837;DHT22;400;53.550;9.932;2022-11-15T04:03:20;8.50;99.90
837;DHT22;400;53.550;9.932;2022-11-15T04:05:48;8.40;99.90
837;DHT22;400;53.550;9.932;2022-11-15T04:08:20;8.50;99.90
837;DHT22;400;53.550;9.932;2022-11-15T04:10:48;8.50;99.90
837;DHT22;400;53.550;9.932;2022-11-15T04:13:16;8.60;99.90
837;DHT22;400;53.550;9.932;2022-11-15T04:15:43;8.50;99.90
837;DHT22;400;53.550;9.932;2022-11-15T04:18:11;8.60;99.90
837;DHT22;400;53.550;9.932;2022-11-15T04:20:42;8.60;99.90
837;DHT22;400;53.550;9.932;2022-11-15T04:23:28;8.60;99.90
837;DHT22;400;53.550;9.932;2022-11-15T04:26:27;8.60;99.90
837;DHT22;400;53.550;9.932;2022-11-15T04:28:54;8.70;99.90
837;DHT22;400;53.550;9.932;2022-11-15T04:31:38;8.70;99.90
837;DHT22;400;53.550;9.932;2022-11-15T04:34:05;8.80;99.90
837;DHT22;400;53.550;9.932;2022-11-15T04:36:32;8.80;99.90
837;DHT22;400;53.550;9.932;2022-11-15T04:39:19;8.70;99.90
837;DHT22;400;53.550;9.932;2022-11-15T04:41:45;8.80;99.90
837;DHT22;400;53.550;9.932;2022-11-15T04:44:12;8.80;99.90
837;DHT22;400;53.550;9.932;2022-11-15T04:46:39;8.90;99.90
837;DHT22;400;53.550;9.932;2022-11-15T04:49:06;8.90;99.90
837;DHT22;400;53.550;9.932;2022-11-15T04:51:33;8.90;99.90
837;DHT22;400;53.550;9.932;2022-11-15T04:54:02;8.90;99.90
837;DHT22;400;53.550;9.932;2022-11-15T04:56:31;9.00;99.90
837;DHT22;400;53.550;9.932;2022-11-15T04:58:57;9.00;99.90
837;DHT22;400;53.550;9.932;2022-11-15T05:01:24;9.00;99.90
837;DHT22;400;53.550;9.932;2022-11-15T05:03:51;9.10;99.90
837;DHT22;400;53.550;9.932;2022-11-15T05:06:35;9.10;99.90
837;DHT22;400;53.550;9.932;2022-11-15T05:09:03;9.10;99.90
837;DHT22;400;53.550;9.932;2022-11-15T05:11:31;9.20;99.90
837;DHT22;400;53.550;9.932;2022-11-15T05:13:58;9.10;99.90
837;DHT22;400;53.550;9.932;2022-11-15T05:16:25;9.20;99.90
837;DHT22;400;53.550;9.932;2022-11-15T05:18:52;9.20;99.90
837;DHT22;400;53.550;9.932;2022-11-15T05:21:19;9.20;99.90
837;DHT22;400;53.550;9.932;2022-11-15T05:23:47;9.10;99.90
837;DHT22;400;53.550;9.932;2022-11-15T05:26:15;9.20;99.90
837;DHT22;400;53.550;9.932;2022-11-15T05:28:44;9.20;99.90
837;DHT22;400;53.550;9.932;2022-11-15T05:31:12;9.20;99.90
837;DHT22;400;53.550;9.932;2022-11-15T05:33:41;9.20;99.90
837;DHT22;400;53.550;9.932;2022-11-15T05:36:12;9.20;99.90
837;DHT22;400;53.550;9.932;2022-11-15T05:38:40;9.20;99.90
837;DHT22;400;53.550;9.932;2022-11-15T05:41:11;9.30;99.90
837;DHT22;400;53.550;9.932;2022-11-15T05:43:40;9.30;99.90
837;DHT22;400;53.550;9.932;2022-11-15T05:46:10;9.40;99.90
837;DHT22;400;53.550;9.932;2022-11-15T05:48:53;9.40;99.90
837;DHT22;400;53.550;9.932;2022-11-15T05:51:29;9.40;99.90
837;DHT22;400;53.550;9.932;2022-11-15T05:54:00;9.50;99.90
837;DHT22;400;53.550;9.932;2022-11-15T05:56:32;9.40;99.90
837;DHT22;400;53.550;9.932;2022-11-15T05:59:00;9.40;99.90
837;DHT22;400;53.550;9.932;2022-11-15T06:01:33;9.40;99.90
837;DHT22;400;53.550;9.932;2022-11-15T06:04:02;9.50;99.90
837;DHT22;400;53.550;9.932;2022-11-15T06:06:29;9.40;99.90
837;DHT22;400;53.550;9.932;2022-11-15T06:08:58;9.40;99.90
837;DHT22;400;53.550;9.932;2022-11-15T06:11:30;9.40;99.90
837;DHT22;400;53.550;9.932;2022-11-15T06:13:57;9.40;99.90
837;DHT22;400;53.550;9.932;2022-11-15T06:16:25;9.40;99.90
837;DHT22;400;53.550;9.932;2022-11-15T06:18:57;9.40;99.90
837;DHT22;400;53.550;9.932;2022-11-15T06:21:28;9.50;99.90
837;DHT22;400;53.550;9.932;2022-11-15T06:23:59;9.50;99.90
837;DHT22;400;53.550;9.932;2022-11-15T06:26:28;9.50;99.90
837;DHT22;400;53.550;9.932;2022-11-15T06:28:57;9.50;99.90
837;DHT22;400;53.550;9.932;2022-11-15T06:31:25;9.50;99.90
837;DHT22;400;53.550;9.932;2022-11-15T06:33:57;9.50;99.90
837;DHT22;400;53.550;9.932;2022-11-15T06:36:27;9.50;99.90
837;DHT22;400;53.550;9.932;2022-11-15T06:38:56;9.50;99.90
837;DHT22;400;53.550;9.932;2022-11-15T06:41:25;9.50;99.90
837;DHT22;400;53.550;9.932;2022-11-15T06:43:58;9.50;99.90
837;DHT22;400;53.550;9.932;2022-11-15T06:46:31;9.50;99.90
837;DHT22;400;53.550;9.932;2022-11-15T06:49:01;9.50;99.90
837;DHT22;400;53.550;9.932;2022-11-15T06:51:31;9.50;99.90
837;DHT22;400;53.550;9.932;2022-11-15T06:53:59;9.60;99.90
837;DHT22;400;53.550;9.932;2022-11-15T06:56:26;9.60;99.90
837;DHT22;400;53.550;9.932;2022-11-15T06:58:53;9.60;99.90
837;DHT22;400;53.550;9.932;2022-11-15T07:01:20;9.60;99.90
837;DHT22;400;53.550;9.932;2022-11-15T07:03:50;9.60;99.90
837;DHT22;400;53.550;9.932;2022-11-15T07:06:18;9.60;99.90
837;DHT22;400;53.550;9.932;2022-11-15T07:08:47;9.60;99.90
837;DHT22;400;53.550;9.932;2022-11-15T07:11:14;9.60;99.90
837;DHT22;400;53.550;9.932;2022-11-15T07:13:41;9.60;99.90
837;DHT22;400;53.550;9.932;2022-11-15T07:16:09;9.60;99.90
837;DHT22;400;53.550;9.932;2022-11-15T07:18:41;9.60;99.90
837;DHT22;400;53.550;9.932;2022-11-15T07:21:16;9.70;99.90
837;DHT22;400;53.550;9.932;2022-11-15T07:23:51;9.70;99.90
837;DHT22;400;53.550;9.932;2022-11-15T07:26:22;9.70;99.90
837;DHT22;400;53.550;9.932;2022-11-15T07:28:51;9.60;99.90
837;DHT22;400;53.550;9.932;2022-11-15T07:31:18;9.70;99.90
837;DHT22;400;53.550;9.932;2022-11-15T07:33:45;9.70;99.90
837;DHT22;400;53.550;9.932;2022-11-15T07:36:12;9.60;99.90
837;DHT22;400;53.550;9.932;2022-11-15T07:38:40;9.60;99.90
837;DHT22;400;53.550;9.932;2022-11-15T07:41:08;9.70;99.90
837;DHT22;400;53.550;9.932;2022-11-15T07:43:35;9.70;99.90
837;DHT22;400;53.550;9.932;2022-11-15T07:46:05;9.70;99.90
837;DHT22;400;53.550;9.932;2022-11-15T07:48:35;9.70;99.90
837;DHT22;400;53.550;9.932;2022-11-15T07:51:05;9.70;99.90
837;DHT22;400;53.550;9.932;2022-11-15T07:53:32;9.80;99.90
837;DHT22;400;53.550;9.932;2022-11-15T07:55:59;9.80;99.90
837;DHT22;400;53.550;9.932;2022-11-15T07:58:33;9.80;99.90
837;DHT22;400;53.550;9.932;2022-11-15T08:01:04;9.90;99.90
837;DHT22;400;53.550;9.932;2022-11-15T08:03:32;9.90;99.90
837;DHT22;400;53.550;9.932;2022-11-15T08:06:01;9.90;99.90
837;DHT22;400;53.550;9.932;2022-11-15T08:08:29;10.00;99.90
837;DHT22;400;53.550;9.932;2022-11-15T08:11:01;10.00;99.90
837;DHT22;400;53.550;9.932;2022-11-15T08:13:32;9.90;99.90
837;DHT22;400;53.550;9.932;2022-11-15T08:16:00;9.90;99.90
837;DHT22;400;53.550;9.932;2022-11-15T08:18:32;9.90;99.90
837;DHT22;400;53.550;9.932;2022-11-15T08:21:04;9.90;99.90
837;DHT22;400;53.550;9.932;2022-11-15T08:23:34;10.00;99.90
837;DHT22;400;53.550;9.932;2022-11-15T08:26:08;10.00;99.90
837;DHT22;400;53.550;9.932;2022-11-15T08:28:37;10.00;99.90
837;DHT22;400;53.550;9.932;2022-11-15T08:31:04;10.10;99.90
837;DHT22;400;53.550;9.932;2022-11-15T08:33:35;10.10;99.90
837;DHT22;400;53.550;9.932;2022-11-15T08:36:04;10.10;99.90
837;DHT22;400;53.550;9.932;2022-11-15T08:38:38;10.10;99.90
837;DHT22;400;53.550;9.932;2022-11-15T08:41:06;10.20;99.90
837;DHT22;400;53.550;9.932;2022-11-15T08:43:37;10.20;99.90
837;DHT22;400;53.550;9.932;2022-11-15T08:46:11;10.20;99.90
837;DHT22;400;53.550;9.932;2022-11-15T08:48:46;10.30;99.90
837;DHT22;400;53.550;9.932;2022-11-15T08:51:19;10.30;99.90
837;DHT22;400;53.550;9.932;2022-11-15T08:53:49;10.30;99.90
837;DHT22;400;53.550;9.932;2022-11-15T08:56:24;10.30;99.90
837;DHT22;400;53.550;9.932;2022-11-15T08:59:02;10.30;99.90
837;DHT22;400;53.550;9.932;2022-11-15T09:01:29;10.30;99.90
837;DHT22;400;53.550;9.932;2022-11-15T09:03:59;10.30;99.90
837;DHT22;400;53.550;9.932;2022-11-15T09:06:26;10.30;99.90
837;DHT22;400;53.550;9.932;2022-11-15T09:08:53;10.30;99.90
837;DHT22;400;53.550;9.932;2022-11-15T09:11:20;10.30;99.90
837;DHT22;400;53.550;9.932;2022-11-15T09:13:47;10.40;99.90
837;DHT22;400;53.550;9.932;2022-11-15T09:16:15;10.40;99.90
837;DHT22;400;53.550;9.932;2022-11-15T09:18:42;10.40;99.90
837;DHT22;400;53.550;9.932;2022-11-15T09:21:10;10.50;99.90
837;DHT22;400;53.550;9.932;2022-11-15T09:23:37;10.60;99.90
837;DHT22;400;53.550;9.932;2022-11-15T09:26:16;10.60;99.90
837;DHT22;400;53.550;9.932;2022-11-15T09:28:50;10.70;99.90
837;DHT22;400;53.550;9.932;2022-11-15T09:31:24;10.80;99.90
837;DHT22;400;53.550;9.932;2022-11-15T09:33:54;10.80;99.90
837;DHT22;400;53.550;9.932;2022-11-15T09:36:28;10.90;99.90
837;DHT22;400;53.550;9.932;2022-11-15T09:38:57;11.00;99.90
837;DHT22;400;53.550;9.932;2022-11-15T09:44:39;11.10;99.90
837;DHT22;400;53.550;9.932;2022-11-15T09:47:30;11.20;99.90
837;DHT22;400;53.550;9.932;2022-11-15T09:50:00;11.20;99.90
837;DHT22;400;53.550;9.932;2022-11-15T09:52:30;11.20;99.90
837;DHT22;400;53.550;9.932;2022-11-15T09:55:00;11.20;99.90
837;DHT22;400;53.550;9.932;2022-11-15T09:57:32;11.30;99.90
837;DHT22;400;53.550;9.932;2022-11-15T10:00:12;11.20;99.90
837;DHT22;400;53.550;9.932;2022-11-15T10:02:57;11.20;99.90
837;DHT22;400;53.550;9.932;2022-11-15T10:05:25;11.20;99.90
837;DHT22;400;53.550;9.932;2022-11-15T10:08:10;11.20;99.90
837;DHT22;400;53.550;9.932;2022-11-15T10:10:40;11.30;99.90
837;DHT22;400;53.550;9.932;2022-11-15T10:13:13;11.30;99.90
837;DHT22;400;53.550;9.932;2022-11-15T10:15:42;11.30;99.90
837;DHT22;400;53.550;9.932;2022-11-15T10:18:17;11.40;99.90
837;DHT22;400;53.550;9.932;2022-11-15T10:20:49;11.40;99.90
837;DHT22;400;53.550;9.932;2022-11-15T10:23:22;11.40;99.90
837;DHT22;400;53.550;9.932;2022-11-15T10:25:56;11.40;99.90
837;DHT22;400;53.550;9.932;2022-11-15T10:28:28;11.40;99.90
837;DHT22;400;53.550;9.932;2022-11-15T10:31:00;11.40;99.90
837;DHT22;400;53.550;9.932;2022-11-15T10:33:31;11.50;99.90
837;DHT22;400;53.550;9.932;2022-11-15T10:36:20;11.50;99.90
837;DHT22;400;53.550;9.932;2022-11-15T10:38:53;11.60;99.90
837;DHT22;400;53.550;9.932;2022-11-15T10:41:41;11.60;99.90
837;DHT22;400;53.550;9.932;2022-11-15T10:44:27;11.60;99.90
837;DHT22;400;53.550;9.932;2022-11-15T10:47:20;11.60;99.90
837;DHT22;400;53.550;9.932;2022-11-15T10:49:56;11.60;99.90
837;DHT22;400;53.550;9.932;2022-11-15T10:52:23;11.70;99.90
837;DHT22;400;53.550;9.932;2022-11-15T10:54:53;11.70;99.90
837;DHT22;400;53.550;9.932;2022-11-15T10:57:22;11.70;99.90
837;DHT22;400;53.550;9.932;2022-11-15T10:59:53;11.70;99.90
837;DHT22;400;53.550;9.932;2022-11-15T11:02:30;11.80;99.90
837;DHT22;400;53.550;9.932;2022-11-15T11:04:59;11.80;99.90
837;DHT22;400;53.550;9.932;2022-11-15T11:07:28;11.90;99.90
837;DHT22;400;53.550;9.932;2022-11-15T11:10:05;11.90;99.90
837;DHT22;400;53.550;9.932;2022-11-15T11:12:47;11.90;99.90
837;DHT22;400;53.550;9.932;2022-11-15T11:15:19;11.90;99.90
837;DHT22;400;53.550;9.932;2022-11-15T11:18:05;12.00;99.90
837;DHT22;400;53.550;9.932;2022-11-15T11:20:44;12.10;99.90
837;DHT22;400;53.550;9.932;2022-11-15T11:23:30;12.10;99.90
837;DHT22;400;53.550;9.932;2022-11-15T11:26:31;12.10;99.90
837;DHT22;400;53.550;9.932;2022-11-15T11:29:16;12.10;99.90
837;DHT22;400;53.550;9.932;2022-11-15T11:31:51;12.20;99.90
837;DHT22;400;53.550;9.932;2022-11-15T11:34:31;12.20;99.90
837;DHT22;400;53.550;9.932;2022-11-15T11:37:07;12.30;99.90
837;DHT22;400;53.550;9.932;2022-11-15T11:39:50;12.30;99.90
837;DHT22;400;53.550;9.932;2022-11-15T11:42:29;12.30;99.90
837;DHT22;400;53.550;9.932;2022-11-15T11:45:15;12.30;99.90
837;DHT22;400;53.550;9.932;2022-11-15T11:47:50;12.30;99.90
837;DHT22;400;53.550;9.932;2022-11-15T11:50:24;12.30;99.90
837;DHT22;400;53.550;9.932;2022-11-15T11:52:57;12.40;99.90
837;DHT22;400;53.550;9.932;2022-11-15T11:55:29;12.40;99.90
837;DHT22;400;53.550;9.932;2022-11-15T11:58:05;12.40;99.90
837;DHT22;400;53.550;9.932;2022-11-15T12:00:40;12.40;99.90
837;DHT22;400;53.550;9.932;2022-11-15T12:03:18;12.50;99.90
837;DHT22;400;53.550;9.932;2022-11-15T12:05:56;12.40;99.90
837;DHT22;400;53.550;9.932;2022-11-15T12:08:32;12.50;99.90
837;DHT22;400;53.550;9.932;2022-11-15T12:11:22;12.60;99.90
837;DHT22;400;53.550;9.932;2022-11-15T12:13:56;12.60;99.90
837;DHT22;400;53.550;9.932;2022-11-15T12:16:29;12.60;99.90
837;DHT22;400;53.550;9.932;2022-11-15T12:19:02;12.60;99.90
837;DHT22;400;53.550;9.932;2022-11-15T12:21:36;12.70;99.90
837;DHT22;400;53.550;9.932;2022-11-15T12:24:19;12.70;99.90
837;DHT22;400;53.550;9.932;2022-11-15T12:26:54;12.80;99.90
837;DHT22;400;53.550;9.932;2022-11-15T12:29:33;12.80;99.90
837;DHT22;400;53.550;9.932;2022-11-15T12:32:20;12.80;99.90
837;DHT22;400;53.550;9.932;2022-11-15T12:34:56;12.80;99.90
837;DHT22;400;53.550;9.932;2022-11-15T12:37:54;12.80;99.90
837;DHT22;400;53.550;9.932;2022-11-15T12:40:33;12.80;99.90
837;DHT22;400;53.550;9.932;2022-11-15T12:46:11;12.90;99.90
837;DHT22;400;53.550;9.932;2022-11-15T12:48:58;12.90;99.90
837;DHT22;400;53.550;9.932;2022-11-15T12:54:54;12.90;99.90
837;DHT22;400;53.550;9.932;2022-11-15T12:57:37;13.00;99.90
837;DHT22;400;53.550;9.932;2022-11-15T13:03:25;13.00;99.90
837;DHT22;400;53.550;9.932;2022-11-15T13:06:09;13.00;99.90
837;DHT22;400;53.550;9.932;2022-11-15T13:08:51;13.00;99.90
837;DHT22;400;53.550;9.932;2022-11-15T13:11:48;13.00;99.90
837;DHT22;400;53.550;9.932;2022-11-15T13:14:43;13.10;99.90
837;DHT22;400;53.550;9.932;2022-11-15T13:17:27;13.10;99.90
837;DHT22;400;53.550;9.932;2022-11-15T13:19:59;13.10;99.90
837;DHT22;400;53.550;9.932;2022-11-15T13:22:39;13.20;99.90
837;DHT22;400;53.550;9.932;2022-11-15T13:25:46;13.20;99.90
837;DHT22;400;53.550;9.932;2022-11-15T13:28:22;13.30;99.90
837;DHT22;400;53.550;9.932;2022-11-15T13:30:54;13.30;99.90
837;DHT22;400;53.550;9.932;2022-11-15T13:33:25;13.30;99.90
837;DHT22;400;53.550;9.932;2022-11-15T13:35:56;13.20;99.90
837;DHT22;400;53.550;9.932;2022-11-15T13:38:31;13.30;99.90
837;DHT22;400;53.550;9.932;2022-11-15T13:41:11;13.30;99.90
837;DHT22;400;53.550;9.932;2022-11-15T13:43:44;13.40;99.90
837;DHT22;400;53.550;9.932;2022-11-15T13:46:17;13.40;99.90
837;DHT22;400;53.550;9.932;2022-11-15T13:48:59;13.40;99.90
837;DHT22;400;53.550;9.932;2022-11-15T13:51:35;13.40;99.90
837;DHT22;400;53.550;9.932;2022-11-15T13:54:12;13.50;99.90
837;DHT22;400;53.550;9.932;2022-11-15T13:56:44;13.50;99.90
837;DHT22;400;53.550;9.932;2022-11-15T13:59:17;13.50;99.90
837;DHT22;400;53.550;9.932;2022-11-15T14:01:46;13.50;99.90
837;DHT22;400;53.550;9.932;2022-11-15T14:04:19;13.50;99.90
837;DHT22;400;53.550;9.932;2022-11-15T14:06:49;13.50;99.90
837;DHT22;400;53.550;9.932;2022-11-15T14:09:37;13.50;99.90
837;DHT22;400;53.550;9.932;2022-11-15T14:12:27;13.50;99.90
837;DHT22;400;53.550;9.932;2022-11-15T14:14:56;13.50;99.90
837;DHT22;400;53.550;9.932;2022-11-15T14:17:36;13.50;99.90
837;DHT22;400;53.550;9.932;2022-11-15T14:20:24;13.50;99.90
837;DHT22;400;53.550;9.932;2022-11-15T14:22:55;13.50;99.90
837;DHT22;400;53.550;9.932;2022-11-15T14:25:27;13.60;99.90
837;DHT22;400;53.550;9.932;2022-11-15T14:28:16;13.50;99.90
837;DHT22;400;53.550;9.932;2022-11-15T14:30:59;13.50;99.90
837;DHT22;400;53.550;9.932;2022-11-15T14:33:30;13.50;99.90
837;DHT22;400;53.550;9.932;2022-11-15T14:36:02;13.50;99.90
837;DHT22;400;53.550;9.932;2022-11-15T14:38:33;13.50;99.90
837;DHT22;400;53.550;9.932;2022-11-15T14:41:08;13.50;99.90
837;DHT22;400;53.550;9.932;2022-11-15T14:43:40;13.40;99.90
837;DHT22;400;53.550;9.932;2022-11-15T14:46:12;13.40;99.90
837;DHT22;400;53.550;9.932;2022-11-15T14:48:44;13.40;99.90
837;DHT22;400;53.550;9.932;2022-11-15T14:51:15;13.40;99.90
837;DHT22;400;53.550;9.932;2022-11-15T14:53:43;13.40;99.90
837;DHT22;400;53.550;9.932;2022-11-15T14:56:11;13.30;99.90
837;DHT22;400;53.550;9.932;2022-11-15T14:58:38;13.30;99.90
837;DHT22;400;53.550;9.932;2022-11-15T15:01:16;13.30;99.90
837;DHT22;400;53.550;9.932;2022-11-15T15:03:53;13.30;99.90
837;DHT22;400;53.550;9.932;2022-11-15T15:06:26;13.20;99.90
837;DHT22;400;53.550;9.932;2022-11-15T15:08:56;13.20;99.90
837;DHT22;400;53.550;9.932;2022-11-15T15:11:28;13.20;99.90
837;DHT22;400;53.550;9.932;2022-11-15T15:13:59;13.20;99.90
837;DHT22;400;53.550;9.932;2022-11-15T15:16:37;13.20;99.90
837;DHT22;400;53.550;9.932;2022-11-15T15:19:19;13.20;99.90
837;DHT22;400;53.550;9.932;2022-11-15T15:21:50;13.10;99.90
837;DHT22;400;53.550;9.932;2022-11-15T15:24:19;13.10;99.90
837;DHT22;400;53.550;9.932;2022-11-15T15:26:47;13.10;99.90
837;DHT22;400;53.550;9.932;2022-11-15T15:29:18;13.00;99.90
837;DHT22;400;53.550;9.932;2022-11-15T15:31:48;13.00;99.90
837;DHT22;400;53.550;9.932;2022-11-15T15:34:21;13.00;99.90
837;DHT22;400;53.550;9.932;2022-11-15T15:36:50;12.90;99.90
837;DHT22;400;53.550;9.932;2022-11-15T15:39:35;12.90;99.90
837;DHT22;400;53.550;9.932;2022-11-15T15:42:05;12.90;99.90
837;DHT22;400;53.550;9.932;2022-11-15T15:44:35;12.80;99.90
837;DHT22;400;53.550;9.932;2022-11-15T15:47:11;12.90;99.90
837;DHT22;400;53.550;9.932;2022-11-15T15:49:40;12.80;99.90
837;DHT22;400;53.550;9.932;2022-11-15T15:52:09;12.80;99.90
837;DHT22;400;53.550;9.932;2022-11-15T15:54:41;12.80;99.90
837;DHT22;400;53.550;9.932;2022-11-15T15:57:13;12.80;99.90
837;DHT22;400;53.550;9.932;2022-11-15T15:59:42;12.70;99.90
837;DHT22;400;53.550;9.932;2022-11-15T16:02:12;12.70;99.90
837;DHT22;400;53.550;9.932;2022-11-15T16:04:41;12.70;99.90
837;DHT22;400;53.550;9.932;2022-11-15T16:07:16;12.60;99.90
837;DHT22;400;53.550;9.932;2022-11-15T16:09:44;12.60;99.90
837;DHT22;400;53.550;9.932;2022-11-15T16:12:34;12.60;99.90
837;DHT22;400;53.550;9.932;2022-11-15T16:15:10;12.60;99.90
837;DHT22;400;53.550;9.932;2022-11-15T16:17:42;12.60;99.90
837;DHT22;400;53.550;9.932;2022-11-15T16:20:23;12.60;99.90
837;DHT22;400;53.550;9.932;2022-11-15T16:22:55;12.60;99.90
837;DHT22;400;53.550;9.932;2022-11-15T16:25:26;12.60;99.90
837;DHT22;400;53.550;9.932;2022-11-15T16:27:56;12.60;99.90
837;DHT22;400;53.550;9.932;2022-11-15T16:30:25;12.60;99.90
837;DHT22;400;53.550;9.932;2022-11-15T16:32:59;12.60;99.90
837;DHT22;400;53.550;9.932;2022-11-15T16:35:34;12.60;99.90
837;DHT22;400;53.550;9.932;2022-11-15T16:38:09;12.60;99.90
837;DHT22;400;53.550;9.932;2022-11-15T16:40:42;12.60;99.90
837;DHT22;400;53.550;9.932;2022-11-15T16:43:10;12.60;99.90
837;DHT22;400;53.550;9.932;2022-11-15T16:45:39;12.60;99.90
837;DHT22;400;53.550;9.932;2022-11-15T16:48:20;12.60;99.90
837;DHT22;400;53.550;9.932;2022-11-15T16:51:13;12.60;99.90
837;DHT22;400;53.550;9.932;2022-11-15T16:53:44;12.60;99.90
837;DHT22;400;53.550;9.932;2022-11-15T16:56:29;12.50;99.90
837;DHT22;400;53.550;9.932;2022-11-15T16:59:00;12.50;99.90
837;DHT22;400;53.550;9.932;2022-11-15T17:01:30;12.60;99.90
837;DHT22;400;53.550;9.932;2022-11-15T17:03:58;12.50;99.90
837;DHT22;400;53.550;9.932;2022-11-15T17:06:40;12.50;99.90
837;DHT22;400;53.550;9.932;2022-11-15T17:09:10;12.50;99.90
837;DHT22;400;53.550;9.932;2022-11-15T17:11:41;12.60;99.90
837;DHT22;400;53.550;9.932;2022-11-15T17:14:10;12.50;99.90
837;DHT22;400;53.550;9.932;2022-11-15T17:16:38;12.50;99.90
837;DHT22;400;53.550;9.932;2022-11-15T17:19:13;12.60;99.90
837;DHT22;400;53.550;9.932;2022-11-15T17:21:42;12.50;99.90
837;DHT22;400;53.550;9.932;2022-11-15T17:24:10;12.50;99.90
837;DHT22;400;53.550;9.932;2022-11-15T17:26:37;12.50;99.90
837;DHT22;400;53.550;9.932;2022-11-15T17:29:07;12.50;99.90
837;DHT22;400;53.550;9.932;2022-11-15T17:31:35;12.50;99.90
837;DHT22;400;53.550;9.932;2022-11-15T17:34:03;12.50;99.90